모두
Old Arafura Airport YOAF 기상
There is no TAF data available at YOAF or any nearby airports.
There is no METAR data available at YOAF. Showing METAR data for YMGB (27 mi 북).
최근 MGT METAR 이력(YOAF에 대한 데이터 없음)
| Date | Time (ACST) | Flight Rules | Wind Dir. | Speed | Type | Height AGL (ft) | Visibility | Temp (°C) | Temp (°F) | Dew Point (°C) | Dew Point (°F) | Rel. Humid. | Pressure | Density Altitude | Remarks |
|---|---|---|---|---|---|---|---|---|---|---|---|---|---|---|---|
| 07-9월 | 08:30 | n/a | 160° | 2 kt | Missing | 26° | 78° | 22° | 71° | 79% | 1017 mb | 1,261 ft | |||
| 07-9월 | 07:30 | n/a | 160° | 1 kt | Missing | 22° | 71° | 21° | 69° | 94% | 1016 mb | 811 ft | |||
| 07-9월 | 06:30 | n/a | Calm | Missing | 21° | 69° | 20° | 68° | 94% | 1015 mb | 720 ft | ||||
| 07-9월 | 05:30 | n/a | Calm | Missing | 21° | 69° | 20° | 68° | 94% | 1014 mb | 750 ft | ||||
| 07-9월 | 04:30 | n/a | 40° | 1 kt | Missing | 22° | 71° | 20° | 68° | 88% | 1014 mb | 870 ft | |||
| 07-9월 | 03:30 | n/a | 30° | 1 kt | Missing | 23° | 73° | 20° | 68° | 83% | 1014 mb | 990 ft | |||
| 07-9월 | 02:30 | n/a | 50° | 4 kt | Missing | 24° | 75° | 21° | 69° | 83% | 1014 mb | 1,110 ft | |||
| 07-9월 | 01:30 | n/a | 50° | 4 kt | Missing | 25° | 77° | 21° | 69° | 79% | 1015 mb | 1,200 ft | |||
| 07-9월 | 00:30 | n/a | 60° | 5 kt | Missing | 25° | 77° | 22° | 71° | 83% | 1015 mb | 1,200 ft | |||
| 06-9월 | 23:30 | n/a | 70° | 5 kt | Missing | 25° | 77° | 22° | 71° | 83% | 1016 mb | 1,171 ft | |||
| 06-9월 | 22:30 | n/a | 60° | 5 kt | Missing | 26° | 78° | 22° | 71° | 79% | 1016 mb | 1,291 ft | |||
| 06-9월 | 21:30 | n/a | 60° | 6 kt | Missing | 26° | 78° | 22° | 71° | 79% | 1015 mb | 1,320 ft | |||
| 06-9월 | 20:30 | n/a | 50° | 4 kt | Missing | 25° | 77° | 22° | 71° | 83% | 1015 mb | 1,200 ft | |||
| 06-9월 | 19:30 | n/a | 30° | 3 kt | Missing | 26° | 78° | 21° | 69° | 74% | 1014 mb | 1,350 ft | |||
| 06-9월 | 18:30 | n/a | 30° | 5 kt | Missing | 26° | 78° | 20° | 68° | 70% | 1013 mb | 1,379 ft | |||
| 06-9월 | 17:30 | n/a | 20° | 5 kt | Missing | 28° | 82° | 20° | 68° | 62% | 1012 mb | 1,649 ft | |||
| 06-9월 | 16:30 | n/a | 10° | 7 kt | Missing | 29° | 84° | 20° | 68° | 58% | 1012 mb | 1,769 ft | |||
| 06-9월 | 15:30 | n/a | 10° | 5 kt | Missing | 31° | 87° | 20° | 68° | 52% | 1012 mb | 2,009 ft | |||
| 06-9월 | 14:30 | n/a | 360° | 9 kt | Missing | 30° | 86° | 21° | 69° | 59% | 1013 mb | 1,859 ft | |||
| 06-9월 | 13:30 | n/a | 70° | 7 kt | Missing | 31° | 87° | 17° | 62° | 43% | 1014 mb | 1,950 ft | |||
| 06-9월 | 12:30 | n/a | 70° | 7 kt | Missing | 30° | 86° | 17° | 62° | 46% | 1015 mb | 1,800 ft | |||
| 06-9월 | 11:30 | n/a | 80° | 5 kt | Missing | 30° | 86° | 19° | 66° | 52% | 1016 mb | 1,771 ft | |||
| 06-9월 | 10:30 | n/a | 50° | 4 kt | Missing | 29° | 84° | 20° | 68° | 58% | 1017 mb | 1,621 ft | |||
| 06-9월 | 09:30 | n/a | 100° | 4 kt | Missing | 29° | 84° | 21° | 69° | 62% | 1017 mb | 1,621 ft |
로그인
| 귀하의 브라우저는 지원되지 않습니다.. 브라우저를 업그레이드하세요 |
